createdAt,value
2023-02-19T00:01:21.821Z,99243.34
2023-02-19T00:03:52.210Z,99255.53
2023-02-19T00:06:20.182Z,99252.03
2023-02-19T00:08:46.938Z,99257.28
2023-02-19T00:11:21.543Z,99248.59
2023-02-19T00:13:50.132Z,99244.25
2023-02-19T00:16:21.009Z,99246.16
2023-02-19T00:18:48.395Z,99251.34
2023-02-19T00:21:16.394Z,99254.66
2023-02-19T00:23:43.204Z,99257.22
2023-02-19T00:26:18.669Z,99256.50
2023-02-19T00:28:49.703Z,99242.44
2023-02-19T00:31:25.727Z,99250.22
2023-02-19T00:33:55.644Z,99246.88
2023-02-19T00:36:22.473Z,99260.81
2023-02-19T00:38:49.653Z,99272.94
2023-02-19T00:41:20.064Z,99267.75
2023-02-19T00:43:56.734Z,99270.38
2023-02-19T00:46:29.016Z,99270.19
2023-02-19T00:48:56.527Z,99262.47
2023-02-19T00:51:25.633Z,99235.50
2023-02-19T00:53:52.553Z,99221.63
2023-02-19T00:56:19.319Z,99213.81
2023-02-19T00:58:46.543Z,99218.31
2023-02-19T01:01:13.801Z,99227.16
2023-02-19T01:03:40.880Z,99226.28
2023-02-19T01:06:09.307Z,99236.81
2023-02-19T01:08:36.238Z,99233.38
2023-02-19T01:11:04.595Z,99235.19
2023-02-19T01:13:31.676Z,99225.56
2023-02-19T01:16:09.028Z,99236.28
2023-02-19T01:18:36.183Z,99236.28
2023-02-19T01:21:13.218Z,99229.22
2023-02-19T01:23:40.156Z,99230.13
2023-02-19T01:26:09.062Z,99230.13
2023-02-19T01:28:35.904Z,99233.63
2023-02-19T01:31:04.813Z,99237.94
2023-02-19T01:33:31.746Z,99230.94
2023-02-19T01:35:58.505Z,99234.41
2023-02-19T01:38:25.142Z,99233.50
2023-02-19T01:40:59.738Z,99222.16
2023-02-19T01:43:26.725Z,99220.31
2023-02-19T01:45:53.647Z,99222.03
2023-02-19T01:48:27.886Z,99227.22
2023-02-19T01:50:59.060Z,99222.91
2023-02-19T01:53:29.478Z,99228.19
2023-02-19T01:55:59.285Z,99216.88
2023-02-19T01:58:30.067Z,99216.00
2023-02-19T02:00:57.056Z,99210.91
2023-02-19T02:03:24.595Z,99203.84
2023-02-19T02:05:51.114Z,99201.28
2023-02-19T02:08:37.200Z,99201.09
2023-02-19T02:11:04.528Z,99180.22
2023-02-19T02:13:34.029Z,99185.50
2023-02-19T02:16:22.108Z,99188.06
2023-02-19T02:18:51.694Z,99178.53
2023-02-19T02:21:45.925Z,99177.66
2023-02-19T02:24:31.219Z,99169.00
2023-02-19T02:27:05.036Z,99185.47
2023-02-19T02:29:46.671Z,99172.41
2023-02-19T02:32:20.162Z,99173.50
2023-02-19T02:34:53.809Z,99164.69
2023-02-19T02:37:20.954Z,99181.19
2023-02-19T02:39:48.795Z,99181.13
2023-02-19T02:42:27.441Z,99189.00
2023-02-19T02:45:14.179Z,99174.25
2023-02-19T02:47:56.611Z,99183.03
2023-02-19T02:50:30.279Z,99173.34
2023-02-19T02:53:20.980Z,99172.38
2023-02-19T02:55:51.818Z,99185.50
2023-02-19T02:58:20.150Z,99167.19
2023-02-19T03:01:13.092Z,99182.97
2023-02-19T03:03:43.380Z,99173.41
2023-02-19T03:06:15.591Z,99169.28
2023-02-19T03:08:52.590Z,99165.78
2023-02-19T03:11:37.747Z,99163.31
2023-02-19T03:14:29.408Z,99155.41
2023-02-19T03:17:21.447Z,99143.28
2023-02-19T03:19:52.445Z,99160.81
2023-02-19T03:22:27.729Z,99153.75
2023-02-19T03:25:21.757Z,99158.03
2023-02-19T03:27:50.059Z,99149.31
2023-02-19T03:30:24.475Z,99153.63
2023-02-19T03:33:08.160Z,99161.44
2023-02-19T03:35:46.415Z,99152.00
2023-02-19T03:38:18.829Z,99157.94
2023-02-19T03:41:04.345Z,99156.09
2023-02-19T03:43:58.817Z,99173.72
2023-02-19T03:46:46.754Z,99165.94
2023-02-19T03:49:35.856Z,99155.50
2023-02-19T03:52:13.331Z,99168.81
2023-02-19T03:54:52.972Z,99174.88
2023-02-19T03:57:31.310Z,99171.47
2023-02-19T04:00:01.368Z,99172.34
2023-02-19T04:02:31.238Z,99170.63
2023-02-19T04:05:07.501Z,99173.25
2023-02-19T04:07:39.013Z,99169.72
2023-02-19T04:10:09.241Z,99175.78
2023-02-19T04:12:39.897Z,99181.03
2023-02-19T04:15:14.475Z,99187.97
2023-02-19T04:17:48.415Z,99195.81
2023-02-19T04:20:16.644Z,99193.13
2023-02-19T04:22:43.988Z,99207.94
2023-02-19T04:25:10.890Z,99202.75
2023-02-19T04:27:39.158Z,99208.78
2023-02-19T04:30:08.777Z,99203.53
2023-02-19T04:32:35.376Z,99207.81
2023-02-19T04:35:01.977Z,99211.22
2023-02-19T04:37:28.560Z,99225.28
2023-02-19T04:39:55.093Z,99218.28
2023-02-19T04:42:21.710Z,99217.47
2023-02-19T04:44:48.324Z,99215.91
2023-02-19T04:47:17.740Z,99213.28
2023-02-19T04:49:45.853Z,99221.84
2023-02-19T04:52:12.676Z,99227.94
2023-02-19T04:54:39.349Z,99229.66
2023-02-19T04:57:06.041Z,99223.63
2023-02-19T04:59:33.158Z,99224.41
2023-02-19T05:01:59.804Z,99228.91
2023-02-19T05:04:26.578Z,99239.34
2023-02-19T05:06:53.260Z,99226.16
2023-02-19T05:09:20.029Z,99232.28
2023-02-19T05:11:46.622Z,99234.84
2023-02-19T05:14:13.182Z,99238.38
2023-02-19T05:16:39.737Z,99227.78
2023-02-19T05:19:06.382Z,99241.00
2023-02-19T05:21:32.926Z,99238.16
2023-02-19T05:23:59.613Z,99237.22
2023-02-19T05:26:26.959Z,99252.00
2023-02-19T05:28:53.681Z,99250.25
2023-02-19T05:31:21.511Z,99254.66
2023-02-19T05:33:51.297Z,99253.88
2023-02-19T05:36:19.885Z,99256.38
2023-02-19T05:38:47.098Z,99260.91
2023-02-19T05:41:14.914Z,99262.50
2023-02-19T05:43:43.715Z,99270.31
2023-02-19T05:46:12.592Z,99271.25
2023-02-19T05:48:39.272Z,99271.25
2023-02-19T05:51:12.514Z,99277.38
2023-02-19T05:53:39.929Z,99272.06
2023-02-19T05:56:24.250Z,99273.81
2023-02-19T05:58:50.855Z,99267.75
2023-02-19T06:01:19.525Z,99258.28
2023-02-19T06:03:46.196Z,99275.69
2023-02-19T06:06:14.623Z,99271.38
2023-02-19T06:08:41.546Z,99261.84
2023-02-19T06:11:08.353Z,99273.97
2023-02-19T06:13:35.477Z,99274.91
2023-02-19T06:16:06.755Z,99276.72
2023-02-19T06:18:33.722Z,99287.06
2023-02-19T06:21:08.830Z,99284.56
2023-02-19T06:23:35.594Z,99280.19
2023-02-19T06:26:22.853Z,99284.56
2023-02-19T06:28:52.276Z,99288.16
2023-02-19T06:31:19.994Z,99300.31
2023-02-19T06:33:47.256Z,99302.91
2023-02-19T06:36:16.940Z,99307.28
2023-02-19T06:38:44.522Z,99314.22
2023-02-19T06:41:12.415Z,99317.69
2023-02-19T06:43:39.527Z,99321.09
2023-02-19T06:46:07.796Z,99315.06
2023-02-19T06:48:35.373Z,99318.47
2023-02-19T06:51:02.448Z,99325.53
2023-02-19T06:53:29.321Z,99328.03
2023-02-19T06:56:00.739Z,99333.19
2023-02-19T06:58:28.032Z,99335.81
2023-02-19T07:00:55.190Z,99339.34
2023-02-19T07:03:22.306Z,99335.94
2023-02-19T07:05:49.425Z,99345.44
2023-02-19T07:08:17.431Z,99346.28
2023-02-19T07:10:55.883Z,99350.56
2023-02-19T07:13:23.489Z,99357.50
2023-02-19T07:15:52.072Z,99365.34
2023-02-19T07:18:18.952Z,99365.44
2023-02-19T07:20:45.581Z,99367.13
2023-02-19T07:23:12.168Z,99375.69
2023-02-19T07:25:39.278Z,99376.63
2023-02-19T07:28:06.432Z,99378.31
2023-02-19T07:30:33.031Z,99385.22
2023-02-19T07:32:59.715Z,99383.44
2023-02-19T07:35:26.695Z,99392.22
2023-02-19T07:37:53.327Z,99378.16
2023-02-19T07:40:20.139Z,99389.53
2023-02-19T07:42:46.718Z,99387.84
2023-02-19T07:45:13.296Z,99391.19
2023-02-19T07:47:39.947Z,99398.19
2023-02-19T07:50:06.898Z,99392.94
2023-02-19T07:52:34.404Z,99400.69
2023-02-19T07:55:01.211Z,99400.63
2023-02-19T07:57:29.053Z,99409.28
2023-02-19T07:59:55.632Z,99406.66
2023-02-19T08:02:40.834Z,99420.56
2023-02-19T08:05:07.767Z,99409.16
2023-02-19T08:07:35.413Z,99411.75
2023-02-19T08:10:22.216Z,99408.03
2023-02-19T08:13:15.162Z,99410.66
2023-02-19T08:15:41.768Z,99415.81
2023-02-19T08:18:09.811Z,99415.78
2023-02-19T08:20:37.241Z,99429.66
2023-02-19T08:23:04.121Z,99427.88
2023-02-19T08:25:30.987Z,99427.00
2023-02-19T08:27:57.601Z,99430.41
2023-02-19T08:30:24.372Z,99425.09
2023-02-19T08:32:51.020Z,99425.22
2023-02-19T08:35:17.713Z,99434.72
2023-02-19T08:37:44.390Z,99427.78
2023-02-19T08:40:11.604Z,99440.63
2023-02-19T08:42:38.377Z,99440.69
2023-02-19T08:45:05.917Z,99433.44
2023-02-19T08:47:35.600Z,99447.16
2023-02-19T08:50:02.565Z,99450.34
2023-02-19T08:52:29.147Z,99452.09
2023-02-19T08:54:56.484Z,99457.03
2023-02-19T08:57:23.480Z,99450.72
2023-02-19T08:59:50.116Z,99460.09
2023-02-19T09:02:16.737Z,99461.19
2023-02-19T09:04:43.302Z,99457.72
2023-02-19T09:07:12.323Z,99468.09
2023-02-19T09:09:39.403Z,99469.50
2023-02-19T09:12:11.280Z,99478.94
2023-02-19T09:14:38.774Z,99483.22
2023-02-19T09:17:06.806Z,99481.56
2023-02-19T09:19:33.388Z,99487.59
2023-02-19T09:22:00.328Z,99483.13
2023-02-19T09:24:27.293Z,99491.78
2023-02-19T09:26:55.222Z,99498.94
2023-02-19T09:29:24.844Z,99501.44
2023-02-19T09:31:51.895Z,99503.28
2023-02-19T09:34:18.530Z,99496.13
2023-02-19T09:36:46.129Z,99502.97
2023-02-19T09:39:12.798Z,99505.34
2023-02-19T09:41:55.467Z,99501.00
2023-02-19T09:44:36.058Z,99508.88
2023-02-19T09:47:11.635Z,99509.19
2023-02-19T09:49:50.243Z,99514.31
2023-02-19T09:52:35.443Z,99521.44
2023-02-19T09:55:16.133Z,99524.00
2023-02-19T09:57:44.944Z,99525.59
2023-02-19T10:00:11.708Z,99528.50
2023-02-19T10:02:39.022Z,99526.75
2023-02-19T10:05:14.494Z,99526.69
2023-02-19T10:07:47.648Z,99529.00
2023-02-19T10:10:14.220Z,99528.03
2023-02-19T10:12:46.490Z,99525.09
2023-02-19T10:15:31.722Z,99523.31
2023-02-19T10:17:58.812Z,99532.66
2023-02-19T10:20:27.921Z,99535.94
2023-02-19T10:23:08.740Z,99543.81
2023-02-19T10:25:36.229Z,99547.84
2023-02-19T10:28:03.513Z,99537.03
2023-02-19T10:30:33.493Z,99539.19
2023-02-19T10:33:00.356Z,99538.41
2023-02-19T10:35:27.275Z,99539.88
2023-02-19T10:37:54.349Z,99541.06
2023-02-19T10:40:24.894Z,99538.25
2023-02-19T10:42:58.966Z,99528.53
2023-02-19T10:45:38.501Z,99534.50
2023-02-19T10:48:07.585Z,99531.63
2023-02-19T10:50:39.337Z,99526.91
2023-02-19T10:53:05.979Z,99537.28
2023-02-19T10:55:37.975Z,99534.59
2023-02-19T10:58:28.548Z,99529.00
2023-02-19T11:01:20.802Z,99531.34
2023-02-19T11:03:49.879Z,99536.47
2023-02-19T11:06:20.222Z,99551.13
2023-02-19T11:08:54.275Z,99544.31
2023-02-19T11:11:23.856Z,99552.13
2023-02-19T11:13:51.120Z,99545.31
2023-02-19T11:16:17.934Z,99546.31
2023-02-19T11:18:45.121Z,99539.34
2023-02-19T11:21:28.373Z,99553.22
2023-02-19T11:23:56.332Z,99566.94
2023-02-19T11:26:26.821Z,99562.06
2023-02-19T11:29:01.649Z,99562.41
2023-02-19T11:31:34.188Z,99554.31
2023-02-19T11:34:02.316Z,99559.84
2023-02-19T11:36:37.061Z,99561.81
2023-02-19T11:39:30.980Z,99549.81
2023-02-19T11:42:03.422Z,99566.28
2023-02-19T11:44:58.987Z,99566.88
2023-02-19T11:47:35.450Z,99566.69
2023-02-19T11:50:14.206Z,99564.56
2023-02-19T11:52:44.216Z,99552.88
2023-02-19T11:55:21.829Z,99554.84
2023-02-19T11:57:59.684Z,99562.81
2023-02-19T12:00:28.528Z,99566.38
2023-02-19T12:03:04.930Z,99565.66
2023-02-19T12:05:31.544Z,99560.34
2023-02-19T12:08:00.939Z,99552.88
2023-02-19T12:10:33.543Z,99560.34
2023-02-19T12:13:35.236Z,99554.16
2023-02-19T12:16:25.211Z,99566.03
2023-02-19T12:19:13.634Z,99561.13
2023-02-19T12:21:43.279Z,99556.75
2023-02-19T12:24:35.610Z,99563.13
2023-02-19T12:27:32.780Z,99563.91
2023-02-19T12:30:21.368Z,99569.88
2023-02-19T12:33:01.970Z,99561.66
2023-02-19T12:35:56.953Z,99565.94
2023-02-19T12:38:38.788Z,99570.31
2023-02-19T12:41:36.090Z,99572.00
2023-02-19T12:44:30.231Z,99573.44
2023-02-19T12:47:01.721Z,99574.22
2023-02-19T12:49:36.509Z,99572.94
2023-02-19T12:52:23.818Z,99571.94
2023-02-19T12:54:57.723Z,99573.88
2023-02-19T12:57:29.801Z,99574.69
2023-02-19T13:00:11.646Z,99574.63
2023-02-19T13:02:50.487Z,99579.31
2023-02-19T13:05:28.296Z,99586.63
2023-02-19T13:08:04.681Z,99565.81
2023-02-19T13:10:41.286Z,99575.34
2023-02-19T13:13:20.517Z,99571.06
2023-02-19T13:15:52.802Z,99567.44
2023-02-19T13:18:26.297Z,99560.13
2023-02-19T13:20:55.446Z,99562.53
2023-02-19T13:23:49.583Z,99556.97
2023-02-19T13:26:34.897Z,99550.75
2023-02-19T13:29:38.587Z,99542.63
2023-02-19T13:32:24.551Z,99540.56
2023-02-19T13:35:28.778Z,99535.53
2023-02-19T13:38:01.140Z,99524.44
2023-02-19T13:40:35.393Z,99524.28
2023-02-19T13:43:05.491Z,99524.34
2023-02-19T13:45:36.972Z,99525.22
2023-02-19T13:48:35.146Z,99532.13
2023-02-19T13:51:17.238Z,99542.63
2023-02-19T13:53:47.947Z,99532.94
2023-02-19T13:56:29.690Z,99531.00
2023-02-19T13:59:23.431Z,99527.06
2023-02-19T14:01:52.486Z,99523.81
2023-02-19T14:04:42.168Z,99527.13
2023-02-19T14:07:08.671Z,99529.53
2023-02-19T14:09:40.763Z,99530.22
2023-02-19T14:12:10.431Z,99537.06
2023-02-19T14:14:45.178Z,99535.47
2023-02-19T14:17:42.008Z,99535.72
2023-02-19T14:20:17.588Z,99547.88
2023-02-19T14:22:47.145Z,99551.31
2023-02-19T14:25:31.948Z,99559.13
2023-02-19T14:28:10.729Z,99559.97
2023-02-19T14:31:16.401Z,99562.69
2023-02-19T14:33:48.993Z,99558.25
2023-02-19T14:37:01.975Z,99554.72
2023-02-19T14:39:40.393Z,99555.56
2023-02-19T14:42:32.492Z,99548.53
2023-02-19T14:45:04.685Z,99556.75
2023-02-19T14:47:35.014Z,99563.72
2023-02-19T14:50:07.303Z,99564.97
2023-02-19T14:52:44.459Z,99570.09
2023-02-19T14:55:33.953Z,99575.53
2023-02-19T14:58:10.492Z,99574.47
2023-02-19T15:00:39.770Z,99579.97
2023-02-19T15:03:23.916Z,99589.81
2023-02-19T15:05:56.013Z,99588.47
2023-02-19T15:08:30.864Z,99580.78
2023-02-19T15:10:57.674Z,99604.47
2023-02-19T15:13:29.660Z,99610.56
2023-02-19T15:15:57.107Z,99608.81
2023-02-19T15:18:25.652Z,99619.63
2023-02-19T15:20:59.511Z,99615.25
2023-02-19T15:23:27.969Z,99621.47
2023-02-19T15:25:54.714Z,99619.63
2023-02-19T15:28:24.360Z,99627.47
2023-02-19T15:31:07.636Z,99630.09
2023-02-19T15:33:35.152Z,99625.94
2023-02-19T15:36:06.626Z,99632.88
2023-02-19T15:38:34.033Z,99631.09
2023-02-19T15:41:01.342Z,99642.53
2023-02-19T15:43:29.282Z,99632.84
2023-02-19T15:46:01.295Z,99627.59
2023-02-19T15:48:35.735Z,99627.69
2023-02-19T15:51:09.482Z,99628.81
2023-02-19T15:53:43.549Z,99633.94
2023-02-19T15:56:32.510Z,99642.00
2023-02-19T15:59:26.449Z,99633.25
2023-02-19T16:01:53.596Z,99638.44
2023-02-19T16:04:20.569Z,99635.16
2023-02-19T16:07:24.290Z,99636.09
2023-02-19T16:10:23.630Z,99642.31
2023-02-19T16:12:58.639Z,99632.66
2023-02-19T16:15:26.940Z,99627.59
2023-02-19T16:17:53.710Z,99630.09
2023-02-19T16:20:25.081Z,99617.03
2023-02-19T16:22:56.436Z,99612.78
2023-02-19T16:25:30.291Z,99615.56
2023-02-19T16:27:58.051Z,99611.38
2023-02-19T16:30:34.056Z,99609.41
2023-02-19T16:33:41.623Z,99615.75
2023-02-19T16:36:18.779Z,99598.34
2023-02-19T16:39:07.335Z,99603.69
2023-02-19T16:41:35.001Z,99597.94
2023-02-19T16:44:06.576Z,99600.63
2023-02-19T16:46:33.293Z,99599.69
2023-02-19T16:48:59.956Z,99603.19
2023-02-19T16:51:27.736Z,99600.75
2023-02-19T16:53:54.342Z,99588.78
2023-02-19T16:56:22.866Z,99594.97
2023-02-19T16:58:50.326Z,99598.41
2023-02-19T17:01:17.732Z,99604.59
2023-02-19T17:03:47.165Z,99612.44
2023-02-19T17:06:15.441Z,99614.41
2023-02-19T17:08:44.280Z,99603.97
2023-02-19T17:11:16.594Z,99612.69
2023-02-19T17:13:45.007Z,99623.22
2023-02-19T17:16:31.698Z,99620.72
2023-02-19T17:18:58.848Z,99621.53
2023-02-19T17:21:28.048Z,99617.44
2023-02-19T17:23:56.809Z,99633.09
2023-02-19T17:26:29.351Z,99631.34
2023-02-19T17:28:57.306Z,99631.41
2023-02-19T17:31:24.178Z,99631.41
2023-02-19T17:33:51.803Z,99634.97
2023-02-19T17:36:21.517Z,99641.09
2023-02-19T17:38:48.197Z,99651.69
2023-02-19T17:41:14.783Z,99657.00
2023-02-19T17:43:41.417Z,99660.53
2023-02-19T17:46:17.204Z,99666.75
2023-02-19T17:48:44.146Z,99672.00
2023-02-19T17:51:14.812Z,99686.88
2023-02-19T17:53:42.123Z,99685.09
2023-02-19T17:56:09.167Z,99692.09
2023-02-19T17:58:35.713Z,99688.63
2023-02-19T18:01:02.305Z,99698.22
2023-02-19T18:03:28.905Z,99699.97
2023-02-19T18:05:55.507Z,99693.03
2023-02-19T18:08:22.068Z,99684.28
2023-02-19T18:10:48.860Z,99693.03
2023-02-19T18:13:15.443Z,99698.31
2023-02-19T18:15:42.037Z,99706.16
2023-02-19T18:18:09.867Z,99707.84
2023-02-19T18:20:36.750Z,99712.31
2023-02-19T18:23:03.373Z,99710.63
2023-02-19T18:25:30.061Z,99714.91
2023-02-19T18:27:57.974Z,99722.81
2023-02-19T18:30:24.764Z,99732.50
2023-02-19T18:32:52.022Z,99722.03
2023-02-19T18:35:20.390Z,99723.72
2023-02-19T18:37:54.271Z,99731.59
2023-02-19T18:40:22.806Z,99736.03
2023-02-19T18:42:49.525Z,99740.44
2023-02-19T18:45:17.162Z,99737.81
2023-02-19T18:47:47.406Z,99747.41
2023-02-19T18:50:14.317Z,99743.16
2023-02-19T18:52:40.921Z,99744.03
2023-02-19T18:55:08.086Z,99750.97
2023-02-19T18:57:34.623Z,99752.69
2023-02-19T19:00:01.238Z,99751.00
2023-02-19T19:02:33.723Z,99752.84
2023-02-19T19:05:06.331Z,99751.84
2023-02-19T19:07:32.998Z,99762.41
2023-02-19T19:09:59.564Z,99754.53
2023-02-19T19:12:26.448Z,99757.25
2023-02-19T19:14:53.358Z,99758.19
2023-02-19T19:17:19.946Z,99757.34
2023-02-19T19:19:46.565Z,99763.53
2023-02-19T19:22:13.444Z,99766.97
2023-02-19T19:24:40.101Z,99765.22
2023-02-19T19:27:06.928Z,99763.59
2023-02-19T19:29:33.798Z,99760.00
2023-02-19T19:32:00.414Z,99750.47
2023-02-19T19:34:27.092Z,99756.53
2023-02-19T19:36:53.694Z,99753.91
2023-02-19T19:39:20.292Z,99743.50
2023-02-19T19:41:46.990Z,99746.94
2023-02-19T19:44:13.577Z,99739.97
2023-02-19T19:46:45.598Z,99742.50
2023-02-19T19:49:12.893Z,99746.09
2023-02-19T19:51:39.600Z,99741.81
2023-02-19T19:54:06.735Z,99734.81
2023-02-19T19:56:39.274Z,99736.69
2023-02-19T19:59:07.333Z,99740.19
2023-02-19T20:01:33.959Z,99747.16
2023-02-19T20:04:00.535Z,99737.59
2023-02-19T20:06:32.013Z,99744.56
2023-02-19T20:09:00.005Z,99747.22
2023-02-19T20:11:26.744Z,99750.69
2023-02-19T20:13:53.546Z,99763.00
2023-02-19T20:16:25.233Z,99769.16
2023-02-19T20:18:51.966Z,99775.31
2023-02-19T20:21:18.618Z,99770.22
2023-02-19T20:23:47.988Z,99761.56
2023-02-19T20:26:21.949Z,99767.63
2023-02-19T20:28:48.626Z,99763.38
2023-02-19T20:31:15.662Z,99754.66
2023-02-19T20:33:42.344Z,99758.19
2023-02-19T20:36:09.258Z,99764.47
2023-02-19T20:38:35.834Z,99757.75
2023-02-19T20:41:03.139Z,99772.53
2023-02-19T20:43:29.725Z,99779.72
2023-02-19T20:45:56.457Z,99780.63
2023-02-19T20:48:23.071Z,99785.91
2023-02-19T20:50:49.642Z,99786.03
2023-02-19T20:53:16.205Z,99788.88
2023-02-19T20:55:42.867Z,99786.50
2023-02-19T20:58:09.679Z,99776.97
2023-02-19T21:00:36.264Z,99786.72
2023-02-19T21:03:02.975Z,99774.69
2023-02-19T21:05:29.605Z,99774.69
2023-02-19T21:07:56.154Z,99772.06
2023-02-19T21:10:22.845Z,99777.41
2023-02-19T21:12:50.660Z,99780.06
2023-02-19T21:15:17.378Z,99771.59
2023-02-19T21:17:47.398Z,99777.63
2023-02-19T21:20:15.186Z,99791.66
2023-02-19T21:22:41.686Z,99792.53
2023-02-19T21:25:08.573Z,99796.00
2023-02-19T21:27:35.173Z,99798.69
2023-02-19T21:30:01.814Z,99798.59
2023-02-19T21:32:28.438Z,99802.09
2023-02-19T21:34:55.099Z,99796.97
2023-02-19T21:37:21.606Z,99802.91
2023-02-19T21:39:48.277Z,99805.50
2023-02-19T21:42:14.921Z,99807.25
2023-02-19T21:44:43.105Z,99803.91
2023-02-19T21:47:11.771Z,99800.63
2023-02-19T21:49:38.375Z,99806.09
2023-02-19T21:52:04.941Z,99805.38
2023-02-19T21:54:31.541Z,99812.47
2023-02-19T21:57:02.484Z,99810.81
2023-02-19T21:59:29.049Z,99816.28
2023-02-19T22:01:57.209Z,99818.94
2023-02-19T22:04:27.364Z,99816.50
2023-02-19T22:06:57.273Z,99825.44
2023-02-19T22:09:23.951Z,99827.22
2023-02-19T22:11:50.532Z,99820.41
2023-02-19T22:14:17.149Z,99815.31
2023-02-19T22:16:43.779Z,99824.22
2023-02-19T22:19:12.155Z,99830.50
2023-02-19T22:21:42.605Z,99835.81
2023-02-19T22:24:15.981Z,99831.56
2023-02-19T22:26:42.972Z,99826.34
2023-02-19T22:29:11.094Z,99840.34
2023-02-19T22:31:37.813Z,99841.16
2023-02-19T22:34:04.819Z,99831.66
2023-02-19T22:36:33.201Z,99834.28
2023-02-19T22:39:01.259Z,99836.13
2023-02-19T22:41:28.834Z,99833.63
2023-02-19T22:43:56.414Z,99832.84
2023-02-19T22:46:25.328Z,99837.28
2023-02-19T22:48:52.081Z,99844.34
2023-02-19T22:51:21.432Z,99841.88
2023-02-19T22:53:50.688Z,99845.38
2023-02-19T22:56:19.259Z,99852.47
2023-02-19T22:58:45.954Z,99849.03
2023-02-19T23:01:14.369Z,99844.78
2023-02-19T23:04:01.376Z,99848.41
2023-02-19T23:06:33.105Z,99846.16
2023-02-19T23:09:05.550Z,99849.94
2023-02-19T23:11:35.065Z,99843.16
2023-02-19T23:14:02.191Z,99842.22
2023-02-19T23:16:29.223Z,99845.66
2023-02-19T23:18:55.827Z,99844.94
2023-02-19T23:21:23.416Z,99835.56
2023-02-19T23:23:50.306Z,99832.06
2023-02-19T23:26:17.312Z,99825.13
2023-02-19T23:28:44.836Z,99825.13
2023-02-19T23:31:12.015Z,99820.06
2023-02-19T23:33:38.761Z,99816.72
2023-02-19T23:36:05.791Z,99822.94
2023-02-19T23:38:32.379Z,99820.34
2023-02-19T23:40:59.424Z,99838.75
2023-02-19T23:43:26.177Z,99837.94
2023-02-19T23:45:53.066Z,99832.91
2023-02-19T23:48:19.710Z,99838.97
2023-02-19T23:50:46.290Z,99830.97
2023-02-19T23:53:12.856Z,99831.97
2023-02-19T23:55:39.428Z,99840.69
2023-02-19T23:58:05.979Z,99839.28
